Aeroporto :
LOGIN :

Iscrizione | Disclaimer

   EN    FR    IT 

 










Sommario :    VFR   VFR Marginale   IFR   IFR Intensivo   IFR Molto Intensivo
Visibilità : 
Base nubi : 
>= 8 km
>= 3000ft
5 / 8 km
1000 / 3000 ft
1500m / 5 km
500 / 1000 ft
800 / 1500m
200 / 500 ft
< 800m
< 200 ft
Simboli :   Temporali  Nebbia  Neve Forte  Precipitazioni Forti  Vento > 20 kt
SIGMETs :   Varie  Temporali  Ghiacco  Turbolenza  Onda orograficha  Ceneri Vulcaniche






- Altitudine del aeroporto : 36 ft
- Codice IATA : RIX


EVRA - Riga

ULTIMO METAR :
  • 270520Z 16006KT 9999 BKN033 M01/M02 Q0990 R18/190095 NOSIG

METARs OBSOLETI :
  • 270450Z 15006KT 9999 BKN033 M00/M01 Q0990 R18/190095 NOSIG
  • 270420Z 14005KT 9999 BKN036 00/M01 Q0990 R18/190095 NOSIG
  • 270350Z 16006KT 9999 FEW029 OVC036 00/M01 Q0990 R18/190095 NOSIG
  • 270320Z 16005KT 9999 FEW022 OVC039 M01/M02 Q0990 R18/190095 NOSIG
  • 270250Z 17005KT 9999 FEW022 OVC039 00/M01 Q0990 R18/190095 NOSIG

TAF TAF EVRA
Valido dal 27 a 06 ore il 28 a 06 ore UTC


270500Z 2706/2806 14007KT 9999 BKN030
BECMG 2712/2714 BKN012 OVC020
TEMPO 2714/2718 4000 RASN BKN007 OVC020
BECMG 2723/2801 31010KT
TEMPO 2800/2806 4000 SN



MetMap, La meteo Aeronautica in un colpo d'occhio ! - Copyright ORBIFLY Dicembre 2007 - Disclaimer

ORBIFLY MET'MAP TEAM :

Programmazione e sviluppo : Alexandra Zaïnal
Concezione : Baudouin d'Aumeries
Aiuto per la programmazione : Marc-Olivier Méhu
Supporto tecnico e logistico : Manuel Goepfert
Aiuto per la traduzione : Arnaldo La Scala

Contatto : metmap@orbifly.com




FONTI E CREDITI :

   NOAA